Dieren, Netherlands
Current Conditions -  °F | °C
As of 10:25 PM on Thursday 23 Oct 2014 (Local Time) from EHDL Reporting Station
Overcast Overcast  
Wind Chill: 54°   Ceiling: 4200
Heat Index: 54°   Visibility: 6mi
Dew Point: 50°   Wind: 12mph
Humidity: 88%   Direction: 200°SSW
Pressure: 30.15"   Gusts: NA
Location:  52.05°N, 6.1°E
Report Text: EHDL 232025Z AUTO 20010KT 9999 OVC042 12/10 Q1021 BLU
Loading
Personal Weather Stations






























Interactive Weather Map
Tropical Storm Tracking
New forecast layout! Learn more

10-Day Weather Forecast

Advertisements
Track Severe Weather on mobile